createdAt,value
2022-12-24T00:01:00.946Z,3.97
2022-12-24T00:03:27.657Z,3.53
2022-12-24T00:05:54.212Z,3.70
2022-12-24T00:08:20.791Z,3.25
2022-12-24T00:10:53.827Z,3.20
2022-12-24T00:13:21.021Z,3.42
2022-12-24T00:15:47.730Z,3.10
2022-12-24T00:18:14.428Z,2.90
2022-12-24T00:20:41.000Z,5.60
2022-12-24T00:23:07.896Z,3.47
2022-12-24T00:25:34.429Z,4.20
2022-12-24T00:28:00.920Z,2.97
2022-12-24T00:30:27.458Z,2.60
2022-12-24T00:32:54.159Z,2.80
2022-12-24T00:35:20.706Z,2.60
2022-12-24T00:37:48.425Z,2.92
2022-12-24T00:40:16.128Z,2.60
2022-12-24T00:42:42.672Z,2.40
2022-12-24T00:45:10.286Z,2.28
2022-12-24T00:47:37.037Z,2.42
2022-12-24T00:50:04.465Z,2.40
2022-12-24T00:52:30.990Z,1.87
2022-12-24T00:54:57.475Z,2.13
2022-12-24T00:57:23.962Z,1.70
2022-12-24T00:59:50.451Z,1.83
2022-12-24T01:02:17.302Z,1.57
2022-12-24T01:04:43.974Z,2.47
2022-12-24T01:07:10.543Z,1.67
2022-12-24T01:09:37.136Z,1.67
2022-12-24T01:12:03.810Z,1.73
2022-12-24T01:14:30.321Z,1.45
2022-12-24T01:16:56.838Z,1.33
2022-12-24T01:19:23.335Z,1.40
2022-12-24T01:21:49.881Z,1.40
2022-12-24T01:24:17.042Z,1.60
2022-12-24T01:26:43.650Z,1.90
2022-12-24T01:29:10.206Z,1.87
2022-12-24T01:31:36.876Z,1.73
2022-12-24T01:34:03.630Z,1.50
2022-12-24T01:36:30.341Z,1.70
2022-12-24T01:38:56.881Z,1.80
2022-12-24T01:41:23.834Z,1.55
2022-12-24T01:43:50.364Z,1.73
2022-12-24T01:46:28.478Z,1.88
2022-12-24T01:48:54.998Z,1.50
2022-12-24T01:51:29.900Z,1.87
2022-12-24T01:53:59.374Z,1.80
2022-12-24T01:56:27.077Z,2.00
2022-12-24T01:58:58.250Z,2.00
2022-12-24T02:01:24.912Z,2.63
2022-12-24T02:03:51.823Z,2.65
2022-12-24T02:06:19.728Z,2.03
2022-12-24T02:08:46.313Z,1.60
2022-12-24T02:11:21.540Z,1.20
2022-12-24T02:13:51.741Z,1.10
2022-12-24T02:19:09.902Z,1.10
2022-12-24T02:21:51.430Z,1.02
2022-12-24T02:24:27.033Z,0.67
2022-12-24T02:27:14.768Z,0.82
2022-12-24T02:30:22.955Z,0.70
2022-12-24T02:32:56.525Z,0.80
2022-12-24T02:35:29.148Z,0.80
2022-12-24T02:38:01.593Z,0.90
2022-12-24T02:40:32.093Z,0.90
2022-12-24T02:43:11.814Z,1.08
2022-12-24T02:45:40.927Z,1.05
2022-12-24T02:48:08.203Z,1.10
2022-12-24T02:50:58.822Z,1.13
2022-12-24T02:53:25.339Z,1.00
2022-12-24T02:55:51.823Z,1.10
2022-12-24T02:58:56.030Z,1.15
2022-12-24T03:01:36.623Z,1.45
2022-12-24T03:04:41.783Z,1.10
2022-12-24T03:07:33.701Z,1.27
2022-12-24T03:10:21.935Z,1.17
2022-12-24T03:12:52.336Z,1.23
2022-12-24T03:15:23.094Z,1.40
2022-12-24T03:17:50.871Z,1.40
2022-12-24T03:20:21.371Z,1.23
2022-12-24T03:22:47.960Z,1.30
2022-12-24T03:25:14.517Z,1.27
2022-12-24T03:27:41.224Z,1.35
2022-12-24T03:30:13.144Z,1.50
2022-12-24T03:32:39.841Z,1.33
2022-12-24T03:35:07.584Z,1.42
2022-12-24T03:37:34.218Z,1.10
2022-12-24T03:40:00.806Z,1.20
2022-12-24T03:42:27.313Z,1.13
2022-12-24T03:44:53.816Z,1.40
2022-12-24T03:47:20.331Z,1.70
2022-12-24T03:49:46.894Z,1.00
2022-12-24T03:52:13.437Z,1.15
2022-12-24T03:54:40.116Z,1.20
2022-12-24T03:57:06.624Z,1.30
2022-12-24T03:59:33.101Z,1.20
2022-12-24T04:02:00.018Z,1.20
2022-12-24T04:04:26.770Z,1.00
2022-12-24T04:06:53.376Z,1.13
2022-12-24T04:09:19.860Z,1.20
2022-12-24T04:11:46.417Z,1.48
2022-12-24T04:14:32.958Z,1.08
2022-12-24T04:17:14.279Z,1.10
2022-12-24T04:19:55.531Z,1.30
2022-12-24T04:22:22.091Z,0.95
2022-12-24T04:24:48.754Z,1.13
2022-12-24T04:27:15.735Z,0.82
2022-12-24T04:29:42.365Z,0.90
2022-12-24T04:32:09.847Z,0.73
2022-12-24T04:34:37.113Z,0.90
2022-12-24T04:37:03.777Z,1.05
2022-12-24T04:39:30.720Z,1.00
2022-12-24T04:41:57.326Z,1.27
2022-12-24T04:44:23.857Z,1.80
2022-12-24T04:46:50.381Z,1.40
2022-12-24T04:49:16.850Z,1.30
2022-12-24T04:51:43.474Z,1.60
2022-12-24T04:54:09.990Z,1.77
2022-12-24T04:56:36.505Z,1.80
2022-12-24T04:59:02.971Z,1.90
2022-12-24T05:01:31.880Z,1.77
2022-12-24T05:03:58.668Z,1.70
2022-12-24T05:06:28.827Z,2.03
2022-12-24T05:11:22.624Z,1.70
2022-12-24T05:13:49.247Z,1.50
2022-12-24T05:16:17.659Z,1.40
2022-12-24T05:18:44.478Z,1.58
2022-12-24T05:21:15.700Z,1.60
2022-12-24T05:23:43.127Z,1.50
2022-12-24T05:26:16.132Z,1.35
2022-12-24T05:28:42.642Z,1.65
2022-12-24T05:31:09.407Z,1.35
2022-12-24T05:33:36.022Z,1.77
2022-12-24T05:36:02.716Z,1.52
2022-12-24T05:38:29.249Z,1.10
2022-12-24T05:40:55.782Z,1.45
2022-12-24T05:43:22.358Z,1.35
2022-12-24T05:45:48.923Z,1.70
2022-12-24T05:48:15.406Z,2.03
2022-12-24T05:50:41.887Z,1.40
2022-12-24T05:53:09.299Z,2.00
2022-12-24T05:55:35.908Z,1.70
2022-12-24T05:58:02.400Z,1.77
2022-12-24T06:00:28.891Z,2.00
2022-12-24T06:02:55.447Z,2.20
2022-12-24T06:05:22.012Z,2.70
2022-12-24T06:07:48.778Z,2.83
2022-12-24T06:10:15.285Z,2.20
2022-12-24T06:12:41.814Z,2.20
2022-12-24T06:15:09.714Z,1.92
2022-12-24T06:17:36.237Z,2.83
2022-12-24T06:20:02.911Z,2.17
2022-12-24T06:22:29.523Z,2.45
2022-12-24T06:24:55.997Z,1.90
2022-12-24T06:27:22.633Z,2.08
2022-12-24T06:29:49.190Z,2.00
2022-12-24T06:32:15.803Z,2.20
2022-12-24T06:34:42.457Z,1.95
2022-12-24T06:37:08.996Z,1.80
2022-12-24T06:39:35.495Z,2.30
2022-12-24T06:42:02.080Z,2.05
2022-12-24T06:44:28.571Z,2.00
2022-12-24T06:46:55.057Z,2.38
2022-12-24T06:49:21.555Z,1.77
2022-12-24T06:51:48.055Z,1.75
2022-12-24T06:54:14.662Z,1.30
2022-12-24T06:56:41.164Z,1.52
2022-12-24T06:59:07.761Z,1.40
2022-12-24T07:01:34.398Z,1.20
2022-12-24T07:04:01.003Z,1.35
2022-12-24T07:06:29.532Z,1.55
2022-12-24T07:08:56.128Z,1.27
2022-12-24T07:11:24.785Z,1.45
2022-12-24T07:13:51.411Z,1.60
2022-12-24T07:16:18.298Z,1.65
2022-12-24T07:18:44.994Z,1.70
2022-12-24T07:21:11.491Z,1.45
2022-12-24T07:23:38.008Z,1.40
2022-12-24T07:26:06.627Z,2.03
2022-12-24T07:28:33.783Z,1.83
2022-12-24T07:31:00.762Z,1.80
2022-12-24T07:33:27.439Z,1.50
2022-12-24T07:36:05.211Z,1.80
2022-12-24T07:38:32.264Z,1.88
2022-12-24T07:40:59.272Z,1.55
2022-12-24T07:43:27.123Z,1.63
2022-12-24T07:45:57.670Z,1.65
2022-12-24T07:48:25.613Z,1.50
2022-12-24T07:50:52.769Z,1.85
2022-12-24T07:53:20.596Z,1.60
2022-12-24T07:55:47.088Z,1.85
2022-12-24T07:58:14.689Z,2.05
2022-12-24T08:00:41.145Z,2.03
2022-12-24T08:03:07.868Z,2.08
2022-12-24T08:05:35.731Z,1.80
2022-12-24T08:08:02.419Z,1.67
2022-12-24T08:10:28.945Z,1.40
2022-12-24T08:12:56.491Z,1.83
2022-12-24T08:15:23.133Z,1.58
2022-12-24T08:17:49.687Z,1.73
2022-12-24T08:20:16.322Z,1.70
2022-12-24T08:22:43.399Z,1.60
2022-12-24T08:25:10.206Z,1.60
2022-12-24T08:27:36.899Z,1.90
2022-12-24T08:30:04.572Z,1.30
2022-12-24T08:32:31.619Z,1.50
2022-12-24T08:34:58.392Z,1.50
2022-12-24T08:37:24.934Z,1.35
2022-12-24T08:39:51.526Z,1.20
2022-12-24T08:42:18.150Z,1.30
2022-12-24T08:44:44.794Z,1.23
2022-12-24T08:47:11.264Z,1.33
2022-12-24T08:49:37.842Z,1.20
2022-12-24T08:52:07.027Z,1.23
2022-12-24T08:54:46.023Z,1.40
2022-12-24T09:01:00.251Z,0.85
2022-12-24T09:05:52.159Z,1.37
2022-12-24T09:08:18.767Z,1.15
2022-12-24T09:10:45.243Z,1.52
2022-12-24T09:13:11.886Z,1.60
2022-12-24T09:15:40.556Z,1.17
2022-12-24T09:18:08.467Z,1.60
2022-12-24T09:20:35.034Z,4.72
2022-12-24T09:23:01.694Z,2.30
2022-12-24T09:25:28.219Z,1.85
2022-12-24T09:27:54.781Z,1.70
2022-12-24T09:30:21.301Z,1.60
2022-12-24T09:32:47.773Z,1.80
2022-12-24T09:35:14.274Z,1.90
2022-12-24T09:37:40.790Z,2.00
2022-12-24T09:40:08.033Z,1.77
2022-12-24T09:42:52.130Z,1.50
2022-12-24T09:45:24.884Z,1.42
2022-12-24T09:47:57.916Z,1.48
2022-12-24T09:50:33.153Z,1.27
2022-12-24T09:53:03.303Z,1.20
2022-12-24T09:58:02.495Z,1.10
2022-12-24T10:00:37.152Z,1.30
2022-12-24T10:03:14.899Z,1.20
2022-12-24T10:05:46.641Z,1.10
2022-12-24T10:08:35.652Z,0.90
2022-12-24T10:11:23.414Z,1.00
2022-12-24T10:13:59.899Z,0.90
2022-12-24T10:16:32.711Z,0.88
2022-12-24T10:19:05.892Z,1.00
2022-12-24T10:21:54.411Z,1.13
2022-12-24T10:24:36.553Z,1.13
2022-12-24T10:27:08.286Z,1.40
2022-12-24T10:29:37.374Z,1.40
2022-12-24T10:32:09.932Z,1.40
2022-12-24T10:34:41.848Z,1.53
2022-12-24T10:37:16.345Z,1.43
2022-12-24T10:39:46.416Z,1.10
2022-12-24T10:44:42.532Z,1.40
2022-12-24T10:47:10.626Z,1.20
2022-12-24T10:49:59.306Z,1.33
2022-12-24T10:52:29.993Z,1.50
2022-12-24T10:55:11.078Z,1.90
2022-12-24T10:57:38.679Z,1.53
2022-12-24T11:00:06.888Z,1.57
2022-12-24T11:02:40.920Z,1.73
2022-12-24T11:05:33.421Z,1.70
2022-12-24T11:08:17.175Z,1.90
2022-12-24T11:10:58.719Z,2.00
2022-12-24T11:13:38.422Z,1.90
2022-12-24T11:16:08.734Z,1.60
2022-12-24T11:18:38.086Z,2.05
2022-12-24T11:21:05.231Z,1.60
2022-12-24T11:23:31.806Z,1.77
2022-12-24T11:25:58.829Z,1.80
2022-12-24T11:28:30.771Z,1.60
2022-12-24T11:31:03.466Z,1.53
2022-12-24T11:33:31.287Z,1.30
2022-12-24T11:36:04.843Z,1.50
2022-12-24T11:38:36.112Z,1.70
2022-12-24T11:41:14.993Z,1.40
2022-12-24T11:43:46.955Z,1.30
2022-12-24T11:46:20.245Z,1.40
2022-12-24T11:48:47.886Z,1.33
2022-12-24T11:51:25.989Z,1.10
2022-12-24T11:54:05.866Z,1.30
2022-12-24T11:56:36.833Z,1.60
2022-12-24T11:59:11.927Z,1.77
2022-12-24T12:01:42.493Z,1.50
2022-12-24T12:04:19.813Z,1.63
2022-12-24T12:06:58.762Z,1.20
2022-12-24T12:09:31.272Z,1.30
2022-12-24T12:12:06.082Z,1.10
2022-12-24T12:14:41.191Z,1.37
2022-12-24T12:17:37.304Z,1.10
2022-12-24T12:20:12.929Z,1.20
2022-12-24T12:23:07.897Z,1.53
2022-12-24T12:25:45.054Z,1.03
2022-12-24T12:28:22.308Z,1.13
2022-12-24T12:31:11.908Z,1.27
2022-12-24T12:33:52.355Z,1.17
2022-12-24T12:36:24.065Z,1.00
2022-12-24T12:38:51.180Z,1.00
2022-12-24T12:41:55.028Z,1.03
2022-12-24T12:44:27.683Z,0.80
2022-12-24T12:47:14.009Z,0.90
2022-12-24T12:49:59.917Z,0.67
2022-12-24T12:52:45.705Z,0.80
2022-12-24T12:55:31.184Z,0.70
2022-12-24T12:58:06.122Z,0.80
2022-12-24T13:00:37.348Z,0.93
2022-12-24T13:03:30.505Z,1.10
2022-12-24T13:06:27.929Z,0.80
2022-12-24T13:09:13.821Z,1.00
2022-12-24T13:12:02.397Z,0.87
2022-12-24T13:15:00.949Z,1.13
2022-12-24T13:18:01.306Z,1.00
2022-12-24T13:20:30.112Z,1.20
2022-12-24T13:22:56.627Z,1.00
2022-12-24T13:25:44.006Z,1.00
2022-12-24T13:28:22.789Z,0.90
2022-12-24T13:30:51.471Z,1.43
2022-12-24T13:33:36.763Z,1.10
2022-12-24T13:36:11.416Z,1.20
2022-12-24T13:38:48.100Z,1.10
2022-12-24T13:41:38.795Z,0.93
2022-12-24T13:44:08.488Z,1.00
2022-12-24T13:46:59.343Z,1.05
2022-12-24T13:49:32.213Z,1.13
2022-12-24T13:52:21.977Z,1.00
2022-12-24T13:54:54.587Z,1.00
2022-12-24T13:57:29.895Z,1.20
2022-12-24T14:00:13.078Z,1.17
2022-12-24T14:02:47.796Z,1.10
2022-12-24T14:05:21.644Z,1.20
2022-12-24T14:07:49.226Z,1.10
2022-12-24T14:10:30.215Z,1.00
2022-12-24T14:12:56.706Z,1.30
2022-12-24T14:15:46.095Z,1.13
2022-12-24T14:18:28.517Z,1.00
2022-12-24T14:21:09.094Z,1.60
2022-12-24T14:23:44.504Z,1.23
2022-12-24T14:26:16.031Z,1.60
2022-12-24T14:28:46.953Z,1.20
2022-12-24T14:31:18.875Z,1.50
2022-12-24T14:33:45.913Z,1.60
2022-12-24T14:36:14.583Z,1.93
2022-12-24T14:41:41.205Z,2.20
2022-12-24T14:44:29.611Z,2.13
2022-12-24T14:51:18.795Z,2.00
2022-12-24T14:54:02.853Z,2.57
2022-12-24T14:56:29.388Z,2.40
2022-12-24T14:59:15.029Z,2.20
2022-12-24T15:01:41.578Z,2.30
2022-12-24T15:04:23.993Z,2.50
2022-12-24T15:06:54.119Z,2.63
2022-12-24T15:09:28.608Z,2.20
2022-12-24T15:12:06.055Z,2.40
2022-12-24T15:14:43.783Z,2.27
2022-12-24T15:17:12.475Z,3.03
2022-12-24T15:19:42.070Z,3.70
2022-12-24T15:22:22.360Z,2.78
2022-12-24T15:24:48.859Z,4.30
2022-12-24T15:27:21.605Z,3.50
2022-12-24T15:29:50.879Z,4.00
2022-12-24T15:32:19.111Z,3.67
2022-12-24T15:34:47.698Z,3.73
2022-12-24T15:37:21.255Z,3.70
2022-12-24T15:39:59.233Z,3.17
2022-12-24T15:42:34.912Z,3.80
2022-12-24T15:45:23.190Z,3.53
2022-12-24T15:48:02.178Z,3.28
2022-12-24T15:50:30.499Z,3.60
2022-12-24T15:53:21.527Z,3.33
2022-12-24T15:56:04.555Z,3.17
2022-12-24T15:58:37.043Z,3.07
2022-12-24T16:01:25.927Z,3.50
2022-12-24T16:03:52.511Z,3.90
2022-12-24T16:06:19.921Z,4.30
2022-12-24T16:08:46.825Z,4.70
2022-12-24T16:11:21.881Z,4.17
2022-12-24T16:13:51.443Z,4.83
2022-12-24T16:16:42.623Z,4.93
2022-12-24T16:19:27.453Z,4.13
2022-12-24T16:21:56.235Z,4.50
2022-12-24T16:24:25.056Z,3.70
2022-12-24T16:26:51.965Z,4.60
2022-12-24T16:29:49.673Z,5.20
2022-12-24T16:32:39.527Z,5.22
2022-12-24T16:35:08.156Z,5.32
2022-12-24T16:37:35.070Z,6.60
2022-12-24T16:40:01.687Z,8.25
2022-12-24T16:42:28.380Z,7.50
2022-12-24T16:44:54.872Z,7.35
2022-12-24T16:47:28.647Z,7.93
2022-12-24T16:49:56.491Z,8.77
2022-12-24T16:52:25.796Z,8.05
2022-12-24T16:54:52.593Z,12.52
2022-12-24T16:57:23.216Z,10.50
2022-12-24T16:59:50.535Z,9.00
2022-12-24T17:02:27.393Z,8.27
2022-12-24T17:04:54.667Z,8.30
2022-12-24T17:07:23.217Z,6.33
2022-12-24T17:09:49.781Z,5.93
2022-12-24T17:12:17.517Z,5.75
2022-12-24T17:14:47.016Z,5.78
2022-12-24T17:17:28.001Z,6.03
2022-12-24T17:19:55.391Z,7.40
2022-12-24T17:22:22.162Z,6.53
2022-12-24T17:24:48.662Z,6.72
2022-12-24T17:27:21.707Z,6.13
2022-12-24T17:29:49.385Z,5.65
2022-12-24T17:32:19.056Z,7.95
2022-12-24T17:34:45.725Z,7.63
2022-12-24T17:37:14.749Z,6.88
2022-12-24T17:39:41.271Z,15.32
2022-12-24T17:42:07.782Z,7.53
2022-12-24T17:44:34.403Z,7.75
2022-12-24T17:47:00.991Z,7.00
2022-12-24T17:49:30.365Z,7.43
2022-12-24T17:52:00.842Z,8.20
2022-12-24T17:54:27.448Z,7.40
2022-12-24T17:56:54.060Z,11.45
2022-12-24T17:59:23.328Z,9.45
2022-12-24T18:01:49.884Z,12.50
2022-12-24T18:04:42.695Z,9.70
2022-12-24T18:07:12.280Z,12.27
2022-12-24T18:09:39.031Z,11.45
2022-12-24T18:12:05.901Z,12.32
2022-12-24T18:14:34.493Z,13.18
2022-12-24T18:17:01.070Z,13.98
2022-12-24T18:19:27.725Z,12.35
2022-12-24T18:21:54.223Z,12.23
2022-12-24T18:24:26.365Z,11.45
2022-12-24T18:26:55.920Z,11.30
2022-12-24T18:29:24.807Z,11.48
2022-12-24T18:31:58.655Z,11.32
2022-12-24T18:34:31.206Z,10.82
2022-12-24T18:36:57.749Z,12.65
2022-12-24T18:43:20.229Z,13.20
2022-12-24T18:45:51.399Z,19.50
2022-12-24T18:49:59.183Z,11.98
2022-12-24T18:51:36.278Z,12.00
2022-12-24T18:54:12.702Z,13.38
2022-12-24T19:06:58.971Z,12.25
2022-12-24T19:13:34.098Z,16.10
2022-12-24T19:16:09.416Z,18.10
2022-12-24T19:18:53.599Z,15.93
2022-12-24T19:24:13.032Z,14.80
2022-12-24T19:34:21.903Z,16.00
2022-12-24T19:37:01.428Z,15.38
2022-12-24T20:12:15.983Z,15.63
2022-12-24T20:14:42.618Z,14.40
2022-12-24T20:17:09.183Z,14.00
2022-12-24T20:19:35.729Z,13.60
2022-12-24T20:22:02.721Z,14.73
2022-12-24T20:24:29.210Z,17.13
2022-12-24T20:26:55.686Z,16.35
2022-12-24T20:29:22.179Z,16.63
2022-12-24T20:31:48.907Z,16.08
2022-12-24T20:34:15.845Z,16.67
2022-12-24T20:36:42.510Z,16.25
2022-12-24T20:39:11.001Z,15.25
2022-12-24T20:41:40.419Z,16.08
2022-12-24T20:44:06.890Z,17.35
2022-12-24T20:46:33.838Z,15.65
2022-12-24T20:49:00.414Z,16.40
2022-12-24T20:51:28.061Z,16.67
2022-12-24T20:53:56.461Z,14.68
2022-12-24T20:56:23.376Z,15.73
2022-12-24T20:58:50.033Z,14.10
2022-12-24T21:01:21.581Z,16.80
2022-12-24T21:03:48.118Z,15.88
2022-12-24T21:06:14.919Z,15.88
2022-12-24T21:08:41.387Z,17.42
2022-12-24T21:11:07.893Z,18.52
2022-12-24T21:13:34.551Z,20.25
2022-12-24T21:16:01.069Z,16.95
2022-12-24T21:18:27.536Z,18.20
2022-12-24T21:20:54.546Z,20.98
2022-12-24T21:27:00.548Z,15.60
2022-12-24T21:29:30.123Z,15.02
2022-12-24T21:31:56.702Z,13.88
2022-12-24T21:34:23.271Z,12.35
2022-12-24T21:40:21.512Z,12.63
2022-12-24T21:43:20.345Z,13.30
2022-12-24T21:45:46.966Z,10.73
2022-12-24T21:48:39.418Z,11.48
2022-12-24T21:51:09.528Z,10.75
2022-12-24T21:53:39.010Z,10.18
2022-12-24T21:56:10.464Z,10.52
2022-12-24T21:58:37.198Z,10.50
2022-12-24T22:01:11.134Z,10.95
2022-12-24T22:03:38.813Z,11.45
2022-12-24T22:06:34.869Z,10.38
2022-12-24T22:09:01.679Z,9.65
2022-12-24T22:11:28.355Z,9.85
2022-12-24T22:14:03.832Z,10.73
2022-12-24T22:16:55.333Z,10.38
2022-12-24T22:30:12.006Z,16.42
2022-12-24T22:32:41.530Z,17.55
2022-12-24T22:35:11.159Z,16.50
2022-12-24T22:37:37.727Z,13.13
2022-12-24T22:40:04.826Z,13.07
2022-12-24T22:42:32.100Z,12.70
2022-12-24T22:45:37.999Z,10.95
2022-12-24T22:48:06.958Z,11.00
2022-12-24T22:50:33.521Z,11.35
2022-12-24T22:53:23.106Z,9.80
2022-12-24T22:55:56.604Z,11.13
2022-12-24T22:58:23.263Z,10.80
2022-12-24T23:00:50.350Z,10.38
2022-12-24T23:03:17.455Z,10.82
2022-12-24T23:06:39.038Z,11.20
2022-12-24T23:09:14.190Z,11.48
2022-12-24T23:11:40.775Z,15.77
2022-12-24T23:14:21.017Z,13.30
2022-12-24T23:19:14.091Z,13.35
2022-12-24T23:21:40.605Z,14.40
2022-12-24T23:24:08.681Z,14.38
2022-12-24T23:26:35.436Z,15.57
2022-12-24T23:29:01.899Z,15.50
2022-12-24T23:31:28.471Z,14.95
2022-12-24T23:33:55.044Z,13.52
2022-12-24T23:37:13.448Z,14.02
2022-12-24T23:39:39.907Z,13.70
2022-12-24T23:42:06.392Z,15.50
2022-12-24T23:44:33.176Z,15.63
2022-12-24T23:47:12.380Z,15.77
2022-12-24T23:49:39.029Z,14.70
2022-12-24T23:55:14.235Z,15.25
2022-12-24T23:57:59.026Z,15.75
